createdAt,value
2024-02-12T00:01:30.840Z,8.50
2024-02-12T00:04:04.343Z,8.56
2024-02-12T00:06:37.193Z,8.56
2024-02-12T00:09:07.714Z,8.55
2024-02-12T00:11:38.600Z,8.61
2024-02-12T00:14:12.011Z,8.56
2024-02-12T00:16:43.701Z,8.49
2024-02-12T00:19:14.286Z,8.48
2024-02-12T00:21:45.136Z,8.47
2024-02-12T00:24:17.080Z,8.45
2024-02-12T00:26:51.573Z,8.47
2024-02-12T00:29:25.522Z,8.41
2024-02-12T00:31:57.892Z,8.46
2024-02-12T00:34:29.922Z,8.49
2024-02-12T00:37:00.601Z,8.51
2024-02-12T00:39:32.361Z,8.54
2024-02-12T00:42:08.421Z,8.60
2024-02-12T00:44:44.205Z,8.56
2024-02-12T00:47:20.316Z,8.56
2024-02-12T00:49:51.148Z,8.53
2024-02-12T00:52:24.903Z,8.59
2024-02-12T00:54:57.882Z,8.56
2024-02-12T00:57:29.334Z,8.55
2024-02-12T01:00:05.941Z,8.52
2024-02-12T01:02:37.271Z,8.59
2024-02-12T01:05:09.764Z,8.65
2024-02-12T01:07:40.198Z,8.73
2024-02-12T01:10:11.717Z,8.72
2024-02-12T01:12:43.760Z,8.60
2024-02-12T01:15:17.026Z,8.74
2024-02-12T01:17:51.220Z,8.71
2024-02-12T01:20:24.842Z,8.74
2024-02-12T01:22:56.621Z,8.79
2024-02-12T01:25:30.076Z,8.74
2024-02-12T01:28:01.708Z,8.81
2024-02-12T01:30:36.489Z,8.90
2024-02-12T01:33:08.289Z,8.85
2024-02-12T01:35:41.557Z,8.76
2024-02-12T01:38:13.128Z,8.73
2024-02-12T01:40:44.080Z,8.73
2024-02-12T01:43:32.447Z,8.80
2024-02-12T01:46:07.239Z,8.75
2024-02-12T01:48:39.874Z,8.72
2024-02-12T01:51:11.268Z,8.66
2024-02-12T01:53:47.902Z,8.67
2024-02-12T01:56:18.431Z,8.65
2024-02-12T01:58:51.913Z,8.69
2024-02-12T02:01:25.400Z,8.66
2024-02-12T02:03:56.734Z,8.64
2024-02-12T02:06:27.344Z,8.63
2024-02-12T02:08:58.009Z,8.78
2024-02-12T02:11:28.515Z,8.76
2024-02-12T02:14:00.063Z,8.75
2024-02-12T02:16:37.859Z,8.65
2024-02-12T02:19:10.209Z,8.72
2024-02-12T02:21:40.546Z,8.71
2024-02-12T02:24:16.565Z,8.69
2024-02-12T02:26:49.958Z,8.78
2024-02-12T02:29:20.480Z,8.84
2024-02-12T02:31:51.470Z,8.77
2024-02-12T02:34:22.047Z,8.84
2024-02-12T02:36:54.586Z,8.84
2024-02-12T02:39:27.915Z,8.75
2024-02-12T02:41:59.405Z,8.77
2024-02-12T02:44:31.092Z,8.77
2024-02-12T02:47:05.787Z,8.82
2024-02-12T02:49:37.328Z,8.72
2024-02-12T02:52:09.261Z,8.75
2024-02-12T02:54:42.297Z,8.67
2024-02-12T02:57:13.158Z,8.57
2024-02-12T02:59:45.078Z,8.53
2024-02-12T03:02:15.760Z,8.62
2024-02-12T03:04:49.187Z,8.71
2024-02-12T03:07:19.784Z,8.74
2024-02-12T03:09:54.229Z,8.70
2024-02-12T03:12:24.781Z,8.58
2024-02-12T03:14:55.492Z,8.59
2024-02-12T03:17:25.987Z,8.61
2024-02-12T03:19:57.636Z,8.64
2024-02-12T03:22:28.097Z,8.57
2024-02-12T03:25:02.153Z,8.57
2024-02-12T03:27:29.951Z,8.52
2024-02-12T03:30:00.347Z,8.49
2024-02-12T03:32:30.959Z,8.55
2024-02-12T03:35:05.003Z,8.63
2024-02-12T03:37:35.671Z,8.66
2024-02-12T03:40:12.206Z,8.56
2024-02-12T03:42:42.708Z,8.61
2024-02-12T03:45:17.062Z,8.67
2024-02-12T03:47:49.355Z,8.53
2024-02-12T03:50:34.016Z,8.60
2024-02-12T03:53:18.929Z,8.58
2024-02-12T03:56:04.293Z,8.58
2024-02-12T03:58:46.954Z,8.57
2024-02-12T04:01:18.474Z,8.53
2024-02-12T04:03:50.714Z,8.53
2024-02-12T04:06:21.418Z,8.48
2024-02-12T04:08:53.185Z,8.53
2024-02-12T04:11:26.458Z,8.59
2024-02-12T04:13:58.385Z,8.56
2024-02-12T04:16:30.005Z,8.57
2024-02-12T04:19:00.347Z,8.59
2024-02-12T04:21:32.919Z,8.63
2024-02-12T04:24:05.769Z,8.59
2024-02-12T04:26:39.216Z,8.54
2024-02-12T04:29:10.490Z,8.53
2024-02-12T04:31:41.210Z,8.48
2024-02-12T04:34:14.847Z,8.50
2024-02-12T04:36:46.038Z,8.49
2024-02-12T04:39:20.518Z,8.51
2024-02-12T04:41:54.001Z,8.48
2024-02-12T04:44:25.514Z,8.61
2024-02-12T04:46:58.391Z,8.59
2024-02-12T04:49:31.679Z,8.52
2024-02-12T04:52:04.362Z,8.53
2024-02-12T04:54:35.674Z,8.54
2024-02-12T04:57:11.557Z,8.57
2024-02-12T04:59:42.194Z,8.70
2024-02-12T05:02:12.644Z,8.62
2024-02-12T05:04:42.849Z,8.62
2024-02-12T05:07:13.340Z,8.70
2024-02-12T05:09:43.899Z,8.65
2024-02-12T05:12:17.243Z,8.71
2024-02-12T05:14:48.066Z,8.62
2024-02-12T05:17:25.130Z,8.71
2024-02-12T05:20:08.213Z,8.76
2024-02-12T05:22:41.688Z,8.66
2024-02-12T05:25:12.796Z,8.65
2024-02-12T05:27:47.830Z,8.60
2024-02-12T05:30:18.416Z,8.57
2024-02-12T05:32:48.754Z,8.57
2024-02-12T05:35:19.344Z,8.58
2024-02-12T05:37:49.671Z,8.62
2024-02-12T05:40:21.697Z,8.65
2024-02-12T05:42:54.626Z,8.61
2024-02-12T05:45:26.794Z,8.56
2024-02-12T05:47:57.189Z,8.55
2024-02-12T05:50:28.198Z,8.59
2024-02-12T05:52:58.637Z,8.66
2024-02-12T05:55:30.418Z,8.72
2024-02-12T05:58:03.346Z,8.73
2024-02-12T06:00:34.160Z,8.80
2024-02-12T06:03:04.452Z,8.75
2024-02-12T06:05:34.827Z,8.76
2024-02-12T06:08:06.318Z,8.74
2024-02-12T06:10:36.757Z,8.60
2024-02-12T06:13:09.721Z,8.60
2024-02-12T06:15:40.096Z,8.55
2024-02-12T06:18:11.541Z,8.46
2024-02-12T06:20:41.915Z,8.50
2024-02-12T06:23:12.374Z,8.54
2024-02-12T06:25:45.735Z,8.46
2024-02-12T06:28:18.578Z,8.45
2024-02-12T06:30:49.560Z,8.52
2024-02-12T06:33:19.936Z,8.54
2024-02-12T06:35:50.694Z,8.66
2024-02-12T06:38:21.032Z,8.65
2024-02-12T06:40:51.455Z,8.63
2024-02-12T06:43:24.507Z,8.61
2024-02-12T06:45:54.860Z,8.71
2024-02-12T06:48:25.180Z,8.66
2024-02-12T06:50:55.509Z,8.79
2024-02-12T06:53:25.794Z,8.79
2024-02-12T06:55:56.180Z,8.88
2024-02-12T06:58:30.640Z,8.81
2024-02-12T07:01:01.360Z,8.86
2024-02-12T07:03:33.712Z,8.93
2024-02-12T07:06:04.167Z,8.87
2024-02-12T07:08:34.549Z,8.71
2024-02-12T07:11:05.041Z,8.69
2024-02-12T07:13:38.090Z,8.80
2024-02-12T07:16:09.575Z,8.81
2024-02-12T07:18:43.110Z,8.81
2024-02-12T07:21:13.474Z,8.76
2024-02-12T07:26:35.848Z,8.84
2024-02-12T07:29:09.357Z,8.92
2024-02-12T07:31:40.768Z,8.92
2024-02-12T07:34:11.427Z,8.84
2024-02-12T07:36:47.752Z,8.90
2024-02-12T07:39:19.024Z,8.99
2024-02-12T07:41:52.192Z,9.04
2024-02-12T07:44:25.098Z,9.06
2024-02-12T07:46:55.564Z,9.15
2024-02-12T07:49:25.938Z,9.15
2024-02-12T07:51:56.436Z,9.18
2024-02-12T07:54:26.747Z,9.24
2024-02-12T07:56:59.070Z,9.18
2024-02-12T07:59:34.881Z,9.37
2024-02-12T08:02:05.178Z,9.49
2024-02-12T08:04:35.501Z,9.45
2024-02-12T08:07:06.648Z,9.40
2024-02-12T08:09:37.584Z,9.49
2024-02-12T08:12:09.622Z,9.49
2024-02-12T08:14:44.794Z,9.44
2024-02-12T08:17:27.608Z,9.45
2024-02-12T08:20:04.200Z,9.37
2024-02-12T08:22:34.562Z,9.45
2024-02-12T08:25:04.931Z,9.45
2024-02-12T08:27:35.268Z,9.56
2024-02-12T08:30:12.209Z,9.47
2024-02-12T08:32:46.531Z,9.42
2024-02-12T08:35:17.273Z,9.62
2024-02-12T08:37:47.879Z,9.88
2024-02-12T08:40:19.125Z,9.76
2024-02-12T08:42:51.807Z,9.82
2024-02-12T08:45:25.219Z,9.88
2024-02-12T08:47:55.760Z,10.01
2024-02-12T08:50:26.435Z,9.97
2024-02-12T08:52:57.530Z,9.93
2024-02-12T08:55:28.407Z,10.09
2024-02-12T08:57:58.805Z,10.19
2024-02-12T09:00:31.892Z,10.26
2024-02-12T09:03:02.475Z,10.34
2024-02-12T09:05:32.813Z,10.38
2024-02-12T09:08:03.182Z,10.54
2024-02-12T09:10:35.577Z,10.37
2024-02-12T09:13:06.813Z,10.29
2024-02-12T09:15:41.276Z,10.26
2024-02-12T09:18:12.979Z,10.62
2024-02-12T09:20:43.720Z,10.75
2024-02-12T09:23:14.175Z,10.88
2024-02-12T09:25:45.546Z,11.30
2024-02-12T09:28:19.114Z,11.93
2024-02-12T09:30:52.186Z,12.60
2024-02-12T09:33:22.635Z,13.03
2024-02-12T09:35:53.080Z,13.53
2024-02-12T09:38:23.629Z,14.80
2024-02-12T09:40:57.623Z,14.84
2024-02-12T09:43:30.404Z,14.73
2024-02-12T09:46:07.165Z,14.37
2024-02-12T09:48:37.607Z,13.45
2024-02-12T09:51:09.243Z,13.01
2024-02-12T09:53:43.555Z,12.81
2024-02-12T09:56:16.078Z,12.62
2024-02-12T09:58:46.432Z,12.73
2024-02-12T10:01:22.196Z,13.00
2024-02-12T10:03:56.066Z,13.19
2024-02-12T10:06:26.614Z,12.93
2024-02-12T10:09:07.664Z,12.59
2024-02-12T10:11:39.303Z,12.41
2024-02-12T10:14:10.401Z,12.13
2024-02-12T10:16:43.508Z,11.95
2024-02-12T10:19:15.883Z,11.80
2024-02-12T10:21:46.404Z,11.79
2024-02-12T10:24:18.989Z,11.82
2024-02-12T10:26:53.173Z,11.88
2024-02-12T10:29:23.796Z,11.72
2024-02-12T10:31:57.335Z,11.81
2024-02-12T10:34:30.197Z,11.96
2024-02-12T10:37:01.519Z,12.01
2024-02-12T10:39:32.749Z,12.14
2024-02-12T10:42:07.636Z,12.30
2024-02-12T10:44:38.411Z,12.39
2024-02-12T10:47:14.673Z,12.40
2024-02-12T10:49:45.325Z,12.39
2024-02-12T10:52:17.024Z,12.26
2024-02-12T10:54:48.110Z,12.40
2024-02-12T10:57:19.767Z,12.43
2024-02-12T10:59:51.157Z,12.37
2024-02-12T11:02:24.420Z,12.56
2024-02-12T11:04:59.681Z,12.42
2024-02-12T11:07:33.120Z,12.28
2024-02-12T11:10:06.217Z,12.08
2024-02-12T11:12:37.715Z,12.03
2024-02-12T11:15:14.096Z,12.01
2024-02-12T11:17:48.482Z,12.12
2024-02-12T11:20:22.747Z,12.17
2024-02-12T11:22:54.141Z,12.17
2024-02-12T11:25:25.762Z,12.21
2024-02-12T11:28:01.535Z,12.27
2024-02-12T11:30:32.237Z,12.22
2024-02-12T11:33:05.538Z,12.18
2024-02-12T11:35:36.427Z,12.06
2024-02-12T11:38:08.969Z,12.02
2024-02-12T11:40:40.897Z,12.02
2024-02-12T11:43:11.978Z,11.90
2024-02-12T11:45:44.944Z,11.79
2024-02-12T11:48:21.169Z,11.72
2024-02-12T11:50:52.159Z,11.72
2024-02-12T11:53:22.833Z,11.83
2024-02-12T11:55:53.773Z,11.81
2024-02-12T11:58:24.189Z,11.85
2024-02-12T12:00:54.795Z,11.87
2024-02-12T12:03:28.794Z,11.88
2024-02-12T12:05:59.550Z,11.84
2024-02-12T12:08:31.291Z,11.89
2024-02-12T12:11:08.050Z,12.14
2024-02-12T12:13:38.544Z,12.41
2024-02-12T12:16:09.430Z,12.60
2024-02-12T12:18:43.246Z,12.96
2024-02-12T12:21:14.097Z,13.83
2024-02-12T12:23:46.231Z,13.87
2024-02-12T12:26:17.435Z,13.86
2024-02-12T12:28:49.320Z,15.33
2024-02-12T12:31:20.003Z,15.45
2024-02-12T12:33:53.230Z,16.95
2024-02-12T12:36:23.731Z,19.92
2024-02-12T12:38:54.324Z,21.16
2024-02-12T12:41:27.091Z,21.38
2024-02-12T12:43:58.201Z,23.31
2024-02-12T12:46:28.788Z,22.92
2024-02-12T12:49:03.552Z,22.97
2024-02-12T12:51:34.110Z,22.27
2024-02-12T12:54:05.771Z,21.46
2024-02-12T12:56:37.158Z,22.12
2024-02-12T12:59:08.116Z,20.91
2024-02-12T13:01:38.622Z,19.36
2024-02-12T13:04:14.670Z,18.31
2024-02-12T13:06:46.414Z,17.40
2024-02-12T13:09:19.227Z,16.52
2024-02-12T13:11:53.008Z,15.75
2024-02-12T13:14:23.695Z,15.02
2024-02-12T13:16:54.611Z,14.49
2024-02-12T13:19:30.508Z,14.08
2024-02-12T13:22:01.085Z,13.73
2024-02-12T13:24:31.565Z,13.33
2024-02-12T13:27:02.319Z,13.05
2024-02-12T13:29:34.494Z,12.71
2024-02-12T13:32:07.227Z,12.54
2024-02-12T13:34:40.599Z,12.50
2024-02-12T13:37:14.109Z,12.52
2024-02-12T13:39:44.644Z,12.54
2024-02-12T13:42:19.529Z,12.51
2024-02-12T13:44:49.943Z,12.40
2024-02-12T13:47:21.884Z,12.46
2024-02-12T13:49:55.254Z,12.77
2024-02-12T13:52:25.754Z,12.87
2024-02-12T13:54:56.913Z,12.91
2024-02-12T13:57:28.892Z,12.98
2024-02-12T14:00:19.474Z,12.90
2024-02-12T14:02:51.563Z,12.97
2024-02-12T14:05:26.294Z,12.70
2024-02-12T14:07:57.165Z,12.43
2024-02-12T14:10:29.491Z,12.23
2024-02-12T14:13:00.560Z,11.82
2024-02-12T14:16:03.201Z,11.62
2024-02-12T14:18:22.264Z,11.54
2024-02-12T14:20:56.469Z,11.47
2024-02-12T14:23:27.661Z,11.32
2024-02-12T14:25:59.011Z,11.39
2024-02-12T14:28:30.627Z,11.29
2024-02-12T14:31:02.770Z,11.36
2024-02-12T14:33:33.693Z,11.47
2024-02-12T14:36:08.214Z,11.63
2024-02-12T14:38:40.456Z,11.55
2024-02-12T14:41:11.516Z,11.42
2024-02-12T14:43:52.292Z,11.41
2024-02-12T14:46:22.713Z,11.40
2024-02-12T14:48:53.215Z,11.24
2024-02-12T14:51:26.709Z,11.36
2024-02-12T14:53:57.098Z,11.97
2024-02-12T14:56:27.695Z,12.08
2024-02-12T14:58:58.136Z,12.52
2024-02-12T15:01:31.384Z,13.06
2024-02-12T15:04:05.977Z,13.33
2024-02-12T15:06:39.145Z,13.48
2024-02-12T15:09:13.470Z,13.33
2024-02-12T15:11:46.475Z,13.46
2024-02-12T15:14:16.942Z,13.77
2024-02-12T15:16:50.582Z,13.13
2024-02-12T15:19:24.026Z,12.73
2024-02-12T15:21:57.466Z,12.18
2024-02-12T15:24:33.945Z,11.83
2024-02-12T15:27:04.385Z,11.40
2024-02-12T15:29:34.810Z,11.10
2024-02-12T15:32:07.622Z,10.92
2024-02-12T15:34:38.475Z,10.77
2024-02-12T15:37:11.448Z,10.76
2024-02-12T15:39:41.712Z,10.75
2024-02-12T15:42:12.471Z,10.50
2024-02-12T15:44:43.024Z,10.44
2024-02-12T15:47:14.072Z,10.45
2024-02-12T15:49:53.926Z,10.50
2024-02-12T15:52:28.547Z,10.54
2024-02-12T15:55:01.281Z,10.55
2024-02-12T15:57:44.015Z,10.43
2024-02-12T16:00:22.977Z,10.29
2024-02-12T16:02:58.291Z,10.21
2024-02-12T16:06:03.498Z,10.12
2024-02-12T16:08:39.166Z,10.12
2024-02-12T16:11:13.503Z,10.00
2024-02-12T16:13:48.554Z,9.89
2024-02-12T16:16:20.454Z,9.82
2024-02-12T16:18:53.981Z,9.76
2024-02-12T16:21:25.291Z,9.69
2024-02-12T16:23:58.547Z,9.86
2024-02-12T16:26:29.217Z,9.81
2024-02-12T16:29:05.197Z,9.73
2024-02-12T16:31:36.261Z,9.73
2024-02-12T16:34:07.019Z,9.75
2024-02-12T16:36:37.917Z,9.78
2024-02-12T16:39:18.678Z,9.71
2024-02-12T16:42:01.630Z,9.69
2024-02-12T16:44:32.709Z,9.71
2024-02-12T16:47:04.926Z,9.73
2024-02-12T16:49:35.522Z,9.79
2024-02-12T16:52:06.296Z,9.82
2024-02-12T16:54:39.558Z,9.81
2024-02-12T16:57:10.124Z,9.82
2024-02-12T16:59:45.131Z,9.82
2024-02-12T17:02:15.802Z,9.67
2024-02-12T17:04:50.406Z,9.73
2024-02-12T17:07:23.010Z,9.80
2024-02-12T17:09:58.415Z,9.89
2024-02-12T17:12:29.041Z,9.85
2024-02-12T17:14:59.538Z,9.91
2024-02-12T17:17:30.207Z,9.91
2024-02-12T17:20:00.805Z,9.90
2024-02-12T17:22:33.156Z,9.95
2024-02-12T17:25:07.416Z,9.99
2024-02-12T17:27:39.119Z,9.97
2024-02-12T17:30:23.533Z,9.95
2024-02-12T17:33:10.316Z,9.94
2024-02-12T17:35:48.644Z,9.91
2024-02-12T17:38:22.300Z,9.70
2024-02-12T17:41:01.155Z,9.59
2024-02-12T17:43:37.024Z,9.56
2024-02-12T17:46:18.496Z,9.56
2024-02-12T17:48:52.031Z,9.42
2024-02-12T17:51:23.695Z,9.24
2024-02-12T17:53:55.702Z,9.33
2024-02-12T17:56:28.789Z,9.32
2024-02-12T17:58:59.646Z,9.32
2024-02-12T18:01:32.732Z,9.18
2024-02-12T18:04:05.072Z,9.08
2024-02-12T18:06:35.941Z,8.98
2024-02-12T18:09:17.543Z,8.85
2024-02-12T18:11:50.903Z,8.82
2024-02-12T18:14:23.577Z,8.75
2024-02-12T18:16:54.123Z,8.77
2024-02-12T18:19:26.730Z,8.77
2024-02-12T18:22:00.423Z,8.75
2024-02-12T18:24:33.833Z,8.80
2024-02-12T18:27:08.302Z,8.79
2024-02-12T18:29:41.907Z,8.67
2024-02-12T18:32:13.434Z,8.46
2024-02-12T18:34:44.352Z,8.35
2024-02-12T18:37:15.522Z,8.30
2024-02-12T18:39:46.047Z,8.23
2024-02-12T18:42:21.245Z,8.07
2024-02-12T18:44:52.696Z,8.03
2024-02-12T18:47:23.190Z,8.09
2024-02-12T18:49:59.236Z,7.92
2024-02-12T18:52:30.991Z,7.96
2024-02-12T18:55:01.611Z,7.90
2024-02-12T18:57:35.543Z,7.79
2024-02-12T19:00:09.228Z,7.87
2024-02-12T19:02:39.691Z,7.95
2024-02-12T19:05:13.421Z,8.04
2024-02-12T19:07:44.417Z,8.17
2024-02-12T19:10:17.412Z,8.26
2024-02-12T19:12:50.811Z,8.37
2024-02-12T19:15:24.935Z,8.37
2024-02-12T19:17:55.596Z,8.37
2024-02-12T19:20:26.786Z,8.36
2024-02-12T19:22:59.368Z,8.36
2024-02-12T19:25:29.767Z,8.35
2024-02-12T19:28:08.093Z,8.54
2024-02-12T19:30:38.970Z,8.57
2024-02-12T19:33:09.917Z,8.58
2024-02-12T19:35:40.639Z,8.56
2024-02-12T19:38:11.112Z,8.46
2024-02-12T19:40:41.601Z,8.40
2024-02-12T19:43:14.845Z,8.52
2024-02-12T19:45:46.055Z,8.63
2024-02-12T19:48:16.757Z,8.58
2024-02-12T19:50:47.407Z,8.53
2024-02-12T19:53:19.624Z,8.42
2024-02-12T19:55:54.032Z,8.55
2024-02-12T19:58:27.335Z,8.51
2024-02-12T20:01:04.450Z,8.45
2024-02-12T20:03:35.365Z,8.35
2024-02-12T20:06:10.911Z,8.28
2024-02-12T20:08:43.369Z,8.16
2024-02-12T20:11:20.416Z,8.19
2024-02-12T20:13:53.836Z,8.29
2024-02-12T20:16:24.712Z,8.39
2024-02-12T20:18:55.426Z,8.34
2024-02-12T20:21:27.500Z,8.44
2024-02-12T20:23:57.944Z,8.42
2024-02-12T20:26:28.513Z,8.51
2024-02-12T20:29:03.000Z,8.54
2024-02-12T20:31:33.649Z,8.56
2024-02-12T20:34:08.958Z,8.46
2024-02-12T20:36:42.777Z,8.41
2024-02-12T20:39:13.312Z,8.37
2024-02-12T20:41:43.860Z,8.42
2024-02-12T20:44:17.343Z,8.40
2024-02-12T20:46:47.971Z,8.43
2024-02-12T20:49:18.690Z,8.57
2024-02-12T20:51:53.141Z,8.53
2024-02-12T20:54:23.787Z,8.47
2024-02-12T20:56:54.314Z,8.23
2024-02-12T20:59:28.241Z,8.18
2024-02-12T21:01:59.173Z,8.04
2024-02-12T21:04:32.602Z,8.02
2024-02-12T21:07:03.695Z,8.07
2024-02-12T21:09:35.604Z,8.02
2024-02-12T21:12:07.482Z,7.99
2024-02-12T21:14:42.165Z,7.97
2024-02-12T21:17:12.935Z,7.95
2024-02-12T21:19:45.529Z,7.91
2024-02-12T21:22:16.372Z,7.90
2024-02-12T21:24:46.773Z,7.80
2024-02-12T21:27:20.232Z,7.88
2024-02-12T21:29:54.413Z,7.83
2024-02-12T21:32:27.774Z,7.75
2024-02-12T21:34:59.308Z,7.78
2024-02-12T21:37:33.898Z,7.84
2024-02-12T21:40:04.593Z,7.92
2024-02-12T21:42:35.052Z,7.80
2024-02-12T21:45:12.385Z,7.74
2024-02-12T21:47:43.004Z,7.64
2024-02-12T21:50:15.025Z,7.61
2024-02-12T21:52:45.657Z,7.56
2024-02-12T21:55:16.358Z,7.63
2024-02-12T21:57:46.854Z,7.74
2024-02-12T22:00:23.085Z,7.78
2024-02-12T22:02:55.085Z,7.78
2024-02-12T22:05:29.829Z,7.89
2024-02-12T22:08:01.209Z,7.84
2024-02-12T22:10:32.074Z,7.77
2024-02-12T22:13:05.048Z,7.74
2024-02-12T22:15:41.602Z,7.76
2024-02-12T22:18:13.565Z,7.82
2024-02-12T22:20:45.094Z,7.76
2024-02-12T22:23:19.013Z,7.72
2024-02-12T22:25:49.559Z,7.64
2024-02-12T22:28:20.435Z,7.62
2024-02-12T22:30:58.459Z,7.67
2024-02-12T22:33:29.051Z,7.56
2024-02-12T22:36:03.324Z,7.52
2024-02-12T22:38:34.425Z,7.54
2024-02-12T22:41:04.864Z,7.44
2024-02-12T22:43:41.861Z,7.41
2024-02-12T22:46:15.065Z,7.43
2024-02-12T22:48:45.717Z,7.45
2024-02-12T22:51:20.726Z,7.55
2024-02-12T22:53:51.550Z,7.56
2024-02-12T22:56:22.177Z,7.54
2024-02-12T22:58:52.996Z,7.59
2024-02-12T23:01:31.454Z,7.56
2024-02-12T23:04:07.224Z,7.47
2024-02-12T23:06:40.415Z,7.52
2024-02-12T23:09:15.851Z,7.45
2024-02-12T23:11:56.566Z,7.53
2024-02-12T23:14:27.320Z,7.60
2024-02-12T23:17:03.379Z,7.60
2024-02-12T23:19:35.265Z,7.43
2024-02-12T23:22:06.074Z,7.44
2024-02-12T23:24:40.202Z,7.45
2024-02-12T23:27:11.118Z,7.50
2024-02-12T23:29:42.028Z,7.62
2024-02-12T23:32:18.564Z,7.46
2024-02-12T23:34:49.228Z,7.51
2024-02-12T23:37:19.920Z,7.55
2024-02-12T23:39:49.869Z,7.49
2024-02-12T23:42:20.501Z,7.41
2024-02-12T23:44:54.309Z,7.37
2024-02-12T23:47:33.025Z,7.34
2024-02-12T23:50:05.362Z,7.46
2024-02-12T23:52:36.396Z,7.28
2024-02-12T23:55:08.325Z,7.26
2024-02-12T23:57:40.864Z,7.30
